Impacts METAR Board
IDs:

KJFK - New York/Kennedy Int, NY, US

Updated at: 2000 UTC 21 Sep 2021
Potential Impact None Slight Moderate High
Time 21/08Z 21/09Z 21/10Z 21/11Z 21/12Z 21/13Z 21/14Z 21/15Z 21/16Z 21/17Z 21/18Z 21/19Z 21/20Z
Temp59 60 59 59 63 67 71 73 75 74 76 76 76
Dewpt55 56 55 56 57 58 59 61 63 64 65 64 66
Altim30.35 30.34 30.34 30.35 30.36 30.37 30.37 30.37 30.36 30.35 30.34 30.32 30.30
VIS10 10 10 10 10 10 10 10 10 10 10 10 10
CIG-- -- -- 250 34 29 40 44 250 35 35 28 55
CoverSCTSCTSCTBKNBKNBKNBKNBKNBKNBKNBKNBKNBKN
FltCatVFRVFRVFRVFRVFRMVFRVFRVFRVFRVFRVFRMVFRVFR
WX--------------------------
WDir50606050505080100110110100130130
WSpd5 7 6 5 5 5 6 10 9 8 11 10 11
WGst-- -- -- -- -- -- -- -- -- -- -- -- --
Raw hourly METARs
KJFK 210751Z 05005KT 10SM FEW030 SCT250 15/13 A3035 RMK AO2 SLP276 T01500128
KJFK 210851Z 06007KT 10SM FEW030 SCT250 16/13 A3034 RMK AO2 SLP274 T01560133 56010
KJFK 210951Z 06006KT 10SM FEW030 SCT250 15/13 A3034 RMK AO2 SLP274 T01500128
KJFK 211051Z 05005KT 10SM FEW027 BKN250 15/13 A3035 RMK AO2 SLP278 T01500133
KJFK 211151Z 05005KT 10SM BKN034 BKN250 17/14 A3036 RMK AO2 SLP282 T01720139 10172 20144 53008
KJFK 211251Z 05005KT 10SM BKN029 BKN042 19/14 A3037 RMK AO2 SLP283 T01940144
KJFK 211351Z 08006KT 10SM SCT030 BKN040 22/15 A3037 RMK AO2 SLP284 T02170150
KJFK 211451Z 10010KT 10SM FEW023 SCT035 BKN044 23/16 A3037 RMK AO2 SLP283 T02280161 50001
KJFK 211551Z 11009KT 10SM SCT025 SCT035 BKN250 24/17 A3036 RMK AO2 SLP279 T02390172
KJFK 211651Z 11008KT 10SM SCT025 BKN035 BKN042 BKN250 23/18 A3035 RMK AO2 SLP276 T02330178
KJFK 211751Z 10011KT 10SM SCT024 BKN035 BKN050 BKN250 24/18 A3034 RMK AO2 SLP272 T02440183 10244 20172 56011
KJFK 211851Z 13010KT 10SM FEW021 BKN028 BKN048 BKN250 24/18 A3032 RMK AO2 SLP268 T02440178
KJFK 211951Z 13011KT 10SM SCT022 SCT029 BKN055 BKN250 24/19 A3030 RMK AO2 SLP262 T02440189



Page loaded:  20:38 UTC  |   01:38 PM Pacific  |   02:38 PM Mountain  |   03:38 PM Central  |   04:38 PM Eastern

 

ADVISORIES

FORECASTS

FORECASTS

OBSERVATIONS

USER TOOLS

ABOUT US